Time;durP1;ratioP1;P1;durP2;ratioP2;P2;SDS_P1;SDS_P2;PMS_P1;PMS_P2;Temp;Humidity;BMP_temperature;BMP_pressure;BME280_temperature;BME280_humidity;BME280_pressure;Samples;Min_cycle;Max_cycle;Signal;HPM_P1;HPM_P2
2022/11/17 17:47:16;;;;;;;0.70;0.50;;;10.50;99.90;;;;;;4859399;23;20316;-70
2022/11/17 17:49:43;;;;;;;1.93;0.50;;;10.60;99.90;;;;;;4841351;29;20216;-74
2022/11/17 17:52:09;;;;;;;1.37;0.53;;;10.60;99.90;;;;;;4839461;29;20224;-72
2022/11/17 17:54:36;;;;;;;2.40;0.50;;;10.50;99.90;;;;;;4860729;29;20231;-70
2022/11/17 17:57:03;;;;;;;2.03;0.53;;;10.50;99.90;;;;;;4849433;29;20208;-67
2022/11/17 17:59:30;;;;;;;1.07;0.50;;;10.50;99.90;;;;;;4843107;29;20688;-67
2022/11/17 18:01:56;;;;;;;2.13;0.60;;;10.50;99.90;;;;;;4842841;29;20735;-73
2022/11/17 18:04:25;;;;;;;1.53;0.63;;;10.50;99.90;;;;;;4842887;29;20237;-74
2022/11/17 18:06:54;;;;;;;3.27;0.60;;;10.50;99.90;;;;;;4843042;29;20264;-70
2022/11/17 18:09:21;;;;;;;3.30;0.53;;;10.40;99.90;;;;;;4842915;29;20208;-68
2022/11/17 18:11:49;;;;;;;2.53;0.70;;;10.50;99.90;;;;;;4840030;29;20660;-65
2022/11/17 18:14:19;;;;;;;1.87;0.53;;;10.50;99.90;;;;;;4843471;29;20688;-65
2022/11/17 18:16:45;;;;;;;3.40;0.60;;;10.50;99.90;;;;;;4843273;29;20550;-65
2022/11/17 18:19:14;;;;;;;4.57;0.67;;;10.40;99.90;;;;;;4843548;29;20213;-79
2022/11/17 18:21:43;;;;;;;0.70;0.40;;;10.30;99.90;;;;;;4842312;29;20826;-66
2022/11/17 18:24:10;;;;;;;0.70;0.60;;;10.30;99.90;;;;;;4843698;29;20708;-65
2022/11/17 18:26:39;;;;;;;0.73;0.60;;;10.30;99.90;;;;;;4836748;29;20685;-65
2022/11/17 18:29:08;;;;;;;2.37;0.70;;;10.20;99.90;;;;;;4838163;29;20213;-66
2022/11/17 18:31:36;;;;;;;3.70;0.87;;;10.20;99.90;;;;;;4841308;29;20217;-72
2022/11/17 18:34:05;;;;;;;2.10;0.83;;;10.30;99.90;;;;;;4838096;29;20229;-72
2022/11/17 18:36:32;;;;;;;4.43;0.90;;;10.30;99.90;;;;;;4834932;29;20377;-65
2022/11/17 18:39:00;;;;;;;5.03;0.80;;;10.30;99.90;;;;;;4838092;29;20304;-65
2022/11/17 18:41:29;;;;;;;2.60;1.17;;;10.20;99.90;;;;;;4833748;29;20243;-65
2022/11/17 18:43:56;;;;;;;3.03;0.60;;;10.20;99.90;;;;;;4835002;29;20229;-65
2022/11/17 18:46:25;;;;;;;2.40;0.80;;;10.30;99.90;;;;;;4836089;29;20224;-71
2022/11/17 18:48:52;;;;;;;1.13;0.70;;;10.30;99.90;;;;;;4832355;29;20217;-69
2022/11/17 18:51:20;;;;;;;1.50;0.60;;;10.20;99.90;;;;;;4838595;29;20217;-74
2022/11/17 18:53:48;;;;;;;3.57;0.87;;;10.20;99.90;;;;;;4838550;29;20862;-75
2022/11/17 18:56:17;;;;;;;3.10;0.90;;;10.20;99.90;;;;;;4836078;29;20228;-71
2022/11/17 18:58:44;;;;;;;3.30;0.90;;;10.30;99.90;;;;;;4837394;29;20213;-66
2022/11/17 19:01:13;;;;;;;3.30;0.70;;;10.20;99.90;;;;;;4845082;29;20240;-68
2022/11/17 19:03:42;;;;;;;1.40;0.60;;;10.20;99.90;;;;;;4837601;29;20229;-65
2022/11/17 19:06:10;;;;;;;1.47;0.60;;;10.10;99.90;;;;;;4837832;29;20219;-75
2022/11/17 19:08:37;;;;;;;3.53;0.90;;;10.10;99.90;;;;;;4829867;29;20213;-64
2022/11/17 19:11:06;;;;;;;1.80;0.53;;;10.10;99.90;;;;;;4837680;29;20661;-64
2022/11/17 19:13:36;;;;;;;3.00;0.60;;;10.20;99.90;;;;;;4841833;29;20229;-67
2022/11/17 19:16:07;;;;;;;2.57;0.63;;;10.20;99.90;;;;;;4834362;29;20209;-65
2022/11/17 19:18:34;;;;;;;2.90;0.83;;;10.30;99.90;;;;;;4831897;29;20593;-64
2022/11/17 19:21:05;;;;;;;2.97;0.70;;;10.20;99.90;;;;;;4834949;29;20239;-64
2022/11/17 19:23:34;;;;;;;1.87;0.63;;;10.20;99.90;;;;;;4838503;29;20235;-65
2022/11/17 19:26:04;;;;;;;1.17;0.80;;;10.10;99.90;;;;;;4831366;29;20569;-68
2022/11/17 19:28:31;;;;;;;1.37;0.70;;;10.10;99.90;;;;;;4837402;29;20286;-65
2022/11/17 19:31:02;;;;;;;2.90;0.70;;;10.00;99.90;;;;;;4837617;29;20259;-65
2022/11/17 19:33:30;;;;;;;3.90;0.90;;;10.00;99.90;;;;;;4836658;29;20293;-66
2022/11/17 19:35:57;;;;;;;1.63;0.70;;;10.00;99.90;;;;;;4836268;29;20212;-65
2022/11/17 19:38:24;;;;;;;1.40;0.70;;;10.00;99.90;;;;;;4833841;29;20215;-65
2022/11/17 19:40:51;;;;;;;2.60;0.90;;;10.00;99.90;;;;;;4833700;29;20581;-64
2022/11/17 19:43:18;;;;;;;2.27;0.80;;;10.00;99.90;;;;;;4839520;29;20239;-64
2022/11/17 19:45:45;;;;;;;2.10;0.60;;;10.00;99.90;;;;;;4834379;29;20311;-65
2022/11/17 19:48:13;;;;;;;1.17;0.50;;;10.00;99.90;;;;;;4833892;29;20255;-68
2022/11/17 19:50:40;;;;;;;1.97;0.57;;;10.00;99.90;;;;;;4834609;29;20467;-66
2022/11/17 19:53:06;;;;;;;3.13;0.50;;;10.00;99.90;;;;;;4840444;29;20610;-77
2022/11/17 19:55:34;;;;;;;2.20;0.73;;;10.00;99.90;;;;;;4834923;29;20212;-64
2022/11/17 19:58:00;;;;;;;0.87;0.67;;;10.00;99.90;;;;;;4836339;29;20216;-67
2022/11/17 20:00:27;;;;;;;0.90;0.60;;;9.90;99.90;;;;;;4836167;29;20299;-66
2022/11/17 20:02:54;;;;;;;1.47;0.60;;;9.90;99.90;;;;;;4841843;29;20252;-73
2022/11/17 20:05:22;;;;;;;1.00;0.53;;;9.90;99.90;;;;;;4839609;29;20208;-76
2022/11/17 20:07:49;;;;;;;0.73;0.60;;;9.90;99.90;;;;;;4833783;29;20218;-65
2022/11/17 20:10:17;;;;;;;1.10;0.70;;;9.90;99.90;;;;;;4839281;29;20214;-77
2022/11/17 20:12:44;;;;;;;3.07;0.60;;;9.80;99.90;;;;;;4836809;29;20235;-76
2022/11/17 20:15:10;;;;;;;1.50;0.50;;;9.80;99.90;;;;;;4830921;29;20210;-69
2022/11/17 20:17:37;;;;;;;1.00;0.40;;;9.80;99.90;;;;;;4829926;29;20213;-73
2022/11/17 20:20:04;;;;;;;1.67;0.63;;;9.80;99.90;;;;;;4839725;29;20230;-76
2022/11/17 20:22:32;;;;;;;2.70;1.10;;;9.80;99.90;;;;;;4826232;29;20247;-65
2022/11/17 20:24:59;;;;;;;3.37;0.93;;;9.70;99.90;;;;;;4834663;29;20212;-66
2022/11/17 20:27:26;;;;;;;2.90;1.10;;;9.70;99.90;;;;;;4835649;29;20209;-70
2022/11/17 20:29:54;;;;;;;2.47;1.10;;;9.60;99.90;;;;;;4831269;29;20217;-76
2022/11/17 20:32:20;;;;;;;2.77;0.97;;;9.60;99.90;;;;;;4837856;29;20214;-70
2022/11/17 20:34:47;;;;;;;3.70;1.20;;;9.60;99.90;;;;;;4838000;29;20216;-65
2022/11/17 20:37:14;;;;;;;4.03;1.40;;;9.50;99.90;;;;;;4837831;29;20222;-73
2022/11/17 20:39:42;;;;;;;3.13;1.30;;;9.50;99.90;;;;;;4835119;29;20607;-65
2022/11/17 20:42:10;;;;;;;3.33;1.40;;;9.50;99.90;;;;;;4831735;29;20241;-65
2022/11/17 20:44:36;;;;;;;4.23;1.97;;;9.50;99.90;;;;;;4841860;29;20213;-65
2022/11/17 20:47:03;;;;;;;3.20;1.80;;;9.50;99.90;;;;;;4840094;29;20213;-64
2022/11/17 20:49:30;;;;;;;3.10;1.40;;;9.60;99.90;;;;;;4836904;29;20392;-65
2022/11/17 20:51:57;;;;;;;3.03;1.40;;;9.50;99.90;;;;;;4834797;29;20266;-66
2022/11/17 20:54:27;;;;;;;2.40;1.07;;;9.50;99.90;;;;;;4839037;29;20245;-68
2022/11/17 20:56:55;;;;;;;2.80;1.30;;;9.60;99.90;;;;;;4828451;29;20700;-66
2022/11/17 20:59:22;;;;;;;5.73;1.03;;;9.50;99.90;;;;;;4835898;29;20270;-65
2022/11/17 21:01:49;;;;;;;9.80;3.70;;;9.40;99.90;;;;;;4837776;29;20279;-73
2022/11/17 21:04:16;;;;;;;14.03;6.20;;;9.30;99.90;;;;;;4830626;29;20233;-66
2022/11/17 21:06:43;;;;;;;25.67;11.60;;;9.40;99.90;;;;;;4836252;29;20217;-65
2022/11/17 21:09:10;;;;;;;12.93;6.10;;;9.40;99.90;;;;;;4833168;29;20522;-65
2022/11/17 21:14:24;;;;;;;10.77;4.43;;;9.40;99.90;;;;;;4833305;29;20244;-70
2022/11/17 21:16:52;;;;;;;5.40;2.23;;;9.50;99.90;;;;;;4839616;29;20220;-65
2022/11/17 21:19:18;;;;;;;5.37;1.30;;;9.40;99.90;;;;;;4839387;29;20692;-69
2022/11/17 21:21:46;;;;;;;4.63;1.00;;;9.50;99.90;;;;;;4833141;29;20738;-67
2022/11/17 21:24:13;;;;;;;4.27;1.70;;;9.50;99.90;;;;;;4840926;29;20231;-65
2022/11/17 21:26:40;;;;;;;5.53;2.10;;;9.50;99.90;;;;;;4841966;29;20217;-65
2022/11/17 21:29:06;;;;;;;6.07;2.23;;;9.50;99.90;;;;;;4837997;29;20213;-66
2022/11/17 21:31:35;;;;;;;8.03;2.60;;;9.50;99.90;;;;;;4839662;29;20220;-64
2022/11/17 21:34:04;;;;;;;11.67;3.87;;;9.50;99.90;;;;;;4838218;29;20329;-64
2022/11/17 21:36:31;;;;;;;7.27;3.10;;;9.40;99.90;;;;;;4837710;29;20221;-71
2022/11/17 21:38:59;;;;;;;6.83;2.50;;;9.40;99.90;;;;;;4839060;29;20215;-64
2022/11/17 21:41:28;;;;;;;8.20;2.70;;;9.40;99.90;;;;;;4836559;29;20327;-70
2022/11/17 21:43:57;;;;;;;11.83;4.40;;;9.40;99.90;;;;;;4840222;29;20252;-64
2022/11/17 21:46:26;;;;;;;3.47;1.87;;;9.40;99.90;;;;;;4843446;29;20216;-68
2022/11/17 21:48:55;;;;;;;5.77;2.30;;;9.40;99.90;;;;;;4834103;29;20223;-71
2022/11/17 21:51:24;;;;;;;6.47;1.70;;;9.40;99.90;;;;;;4837861;29;20225;-65
2022/11/17 21:53:53;;;;;;;3.70;1.70;;;9.40;99.90;;;;;;4834227;29;20225;-64
2022/11/17 21:56:20;;;;;;;3.10;2.03;;;9.50;99.90;;;;;;4834418;29;20215;-72
2022/11/17 21:58:46;;;;;;;4.23;1.13;;;9.50;99.90;;;;;;4837541;29;20221;-65
2022/11/17 22:01:15;;;;;;;2.10;1.20;;;9.50;99.90;;;;;;4835771;29;20697;-65
2022/11/17 22:03:43;;;;;;;6.10;1.40;;;9.60;99.90;;;;;;4836545;29;20232;-65
2022/11/17 22:06:14;;;;;;;3.20;1.20;;;9.70;99.90;;;;;;4837744;29;20208;-65
2022/11/17 22:08:43;;;;;;;3.20;1.20;;;9.80;99.90;;;;;;4833800;29;20235;-68
2022/11/17 22:11:11;;;;;;;4.03;0.80;;;9.80;99.90;;;;;;4838653;29;20223;-67
2022/11/17 22:13:38;;;;;;;9.00;3.73;;;9.80;99.90;;;;;;4841131;29;20239;-65
2022/11/17 22:16:08;;;;;;;3.57;1.70;;;9.80;99.90;;;;;;4835884;29;20209;-72
2022/11/17 22:18:35;;;;;;;10.37;2.90;;;9.80;99.90;;;;;;4831761;29;20217;-66
